Time;durP1;ratioP1;P1;durP2;ratioP2;P2;SDS_P1;SDS_P2;PMS_P1;PMS_P2;Temp;Humidity;BMP_temperature;BMP_pressure;BME280_temperature;BME280_humidity;BME280_pressure;Samples;Min_cycle;Max_cycle;Signal;HPM_P1;HPM_P2
2021/10/24 00:02:06;;;;;;;;;;;;;;;;;;5052462;28;20015;-68
2021/10/24 00:04:33;;;;;;;;;;;;;;;;;;5049062;28;19924;-68
2021/10/24 00:07:00;;;;;;;;;;;;;;;;;;5053509;28;19932;-69
2021/10/24 00:09:27;;;;;;;;;;;;;;;;;;5053207;28;19925;-68
2021/10/24 00:11:54;;;;;;;;;;;;;;;;;;5050626;28;19925;-68
2021/10/24 00:14:21;;;;;;;;;;;;;;;;;;5054257;28;19932;-68
2021/10/24 00:16:48;;;;;;;;;;;;;;;;;;5052295;28;20030;-68
2021/10/24 00:19:15;;;;;;;;;;;;;;;;;;5053018;28;19931;-68
2021/10/24 00:21:42;;;;;;;;;;;;;;;;;;5048597;28;19936;-68
2021/10/24 00:24:09;;;;;;;;;;;;;;;;;;5056086;28;20300;-68
2021/10/24 00:26:36;;;;;;;;;;;;;;;;;;5048200;28;19928;-68
2021/10/24 00:29:03;;;;;;;;;;;;;;;;;;5052325;28;19924;-69
2021/10/24 00:31:30;;;;;;;;;;;;;;;;;;5049600;28;19933;-69
2021/10/24 00:33:59;;;;;;;;;;;;;;;;;;5053964;28;19925;-68
2021/10/24 00:36:26;;;;;;;;;;;;;;;;;;5052137;28;20136;-68
2021/10/24 00:38:53;;;;;;;;;;;;;;;;;;5051159;28;20030;-68
2021/10/24 00:41:20;;;;;;;;;;;;;;;;;;5053282;28;20007;-69
2021/10/24 00:43:47;;;;;;;;;;;;;;;;;;5054280;28;20003;-68
2021/10/24 00:46:14;;;;;;;;;;;;;;;;;;5051526;28;19947;-69
2021/10/24 00:48:41;;;;;;;;;;;;;;;;;;5051353;28;19924;-68
2021/10/24 00:51:08;;;;;;;;;;;;;;;;;;5046608;28;20267;-68
2021/10/24 00:53:35;;;;;;;;;;;;;;;;;;5054638;28;19925;-68
2021/10/24 00:56:02;;;;;;;;;;;;;;;;;;5052966;28;19932;-68
2021/10/24 00:58:29;;;;;;;;;;;;;;;;;;5049114;28;19940;-68
2021/10/24 01:00:56;;;;;;;;;;;;;;;;;;5051972;28;19983;-68
2021/10/24 01:03:23;;;;;;;;;;;;;;;;;;5053234;28;20293;-68
2021/10/24 01:05:50;;;;;;;;;;;;;;;;;;5053437;28;19950;-68
2021/10/24 01:08:17;;;;;;;;;;;;;;;;;;5053044;28;20419;-68
2021/10/24 01:10:44;;;;;;;;;;;;;;;;;;5053016;28;19925;-68
2021/10/24 01:13:11;;;;;;;;;;;;;;;;;;5053068;28;19924;-67
2021/10/24 01:15:39;;;;;;;;;;;;;;;;;;5053780;28;19925;-69
2021/10/24 01:18:06;;;;;;;;;;;;;;;;;;5050785;28;20401;-67
2021/10/24 01:20:33;;;;;;;;;;;;;;;;;;5054386;28;19929;-69
2021/10/24 01:23:00;;;;;;;;;;;;;;;;;;5052158;28;19936;-68
2021/10/24 01:25:27;;;;;;;;;;;;;;;;;;5052424;28;19924;-69
2021/10/24 01:27:54;;;;;;;;;;;;;;;;;;5052018;28;19929;-69
2021/10/24 01:30:21;;;;;;;;;;;;;;;;;;5051498;28;19932;-68
2021/10/24 01:32:48;;;;;;;;;;;;;;;;;;5051467;28;19947;-67
2021/10/24 01:35:15;;;;;;;;;;;;;;;;;;5047143;28;19930;-67
2021/10/24 01:37:42;;;;;;;;;;;;;;;;;;5051777;28;19925;-67
2021/10/24 01:40:09;;;;;;;;;;;;;;;;;;5051715;28;19932;-67
2021/10/24 01:42:36;;;;;;;;;;;;;;;;;;5050099;28;20327;-68
2021/10/24 01:45:03;;;;;;;;;;;;;;;;;;5050195;28;19929;-68
2021/10/24 01:47:30;;;;;;;;;;;;;;;;;;5052291;28;19962;-68
2021/10/24 01:49:57;;;;;;;;;;;;;;;;;;5050278;28;19925;-68
2021/10/24 01:52:24;;;;;;;;;;;;;;;;;;5051681;28;20266;-68
2021/10/24 01:54:51;;;;;;;;;;;;;;;;;;5052359;28;19983;-68
2021/10/24 01:57:18;;;;;;;;;;;;;;;;;;5054830;28;19931;-68
2021/10/24 01:59:45;;;;;;;;;;;;;;;;;;5051447;28;20419;-68
2021/10/24 02:02:12;;;;;;;;;;;;;;;;;;5056664;28;19931;-68
2021/10/24 02:04:39;;;;;;;;;;;;;;;;;;5058112;28;19925;-68
2021/10/24 02:07:06;;;;;;;;;;;;;;;;;;5052995;28;19925;-68
2021/10/24 02:09:33;;;;;;;;;;;;;;;;;;5054447;28;19925;-68
2021/10/24 02:12:00;;;;;;;;;;;;;;;;;;5054957;28;19931;-68
2021/10/24 02:14:27;;;;;;;;;;;;;;;;;;5057280;28;20339;-68
2021/10/24 02:16:54;;;;;;;;;;;;;;;;;;5052520;28;20376;-68
2021/10/24 02:19:21;;;;;;;;;;;;;;;;;;5054302;28;20432;-68
2021/10/24 02:21:48;;;;;;;;;;;;;;;;;;5055038;28;19932;-68
2021/10/24 02:24:15;;;;;;;;;;;;;;;;;;5053697;28;19925;-68
2021/10/24 02:26:42;;;;;;;;;;;;;;;;;;5053394;28;19925;-68
2021/10/24 02:29:09;;;;;;;;;;;;;;;;;;5054553;28;19925;-67
2021/10/24 02:31:36;;;;;;;;;;;;;;;;;;5057223;28;20311;-67
2021/10/24 02:34:03;;;;;;;;;;;;;;;;;;5054168;28;20282;-69
2021/10/24 02:36:30;;;;;;;;;;;;;;;;;;5053834;28;19940;-69
2021/10/24 02:38:57;;;;;;;;;;;;;;;;;;5054765;28;19931;-69
2021/10/24 02:41:24;;;;;;;;;;;;;;;;;;5056127;28;19933;-69
2021/10/24 02:43:51;;;;;;;;;;;;;;;;;;5053325;28;19924;-68
2021/10/24 02:46:18;;;;;;;;;;;;;;;;;;5057858;28;19925;-68
2021/10/24 02:48:45;;;;;;;;;;;;;;;;;;5050645;28;19924;-68
2021/10/24 02:51:12;;;;;;;;;;;;;;;;;;5050927;28;19932;-68
2021/10/24 02:53:39;;;;;;;;;;;;;;;;;;5053560;28;19935;-68
2021/10/24 02:56:06;;;;;;;;;;;;;;;;;;5054789;28;19925;-68
2021/10/24 02:58:33;;;;;;;;;;;;;;;;;;5053119;28;19932;-69
2021/10/24 03:01:00;;;;;;;;;;;;;;;;;;5053817;28;19929;-69
2021/10/24 03:03:27;;;;;;;;;;;;;;;;;;5048541;28;20026;-69
2021/10/24 03:05:54;;;;;;;;;;;;;;;;;;5054047;28;19936;-68
2021/10/24 03:08:21;;;;;;;;;;;;;;;;;;5051465;28;20361;-69
2021/10/24 03:10:48;;;;;;;;;;;;;;;;;;5048807;28;20292;-68
2021/10/24 03:13:16;;;;;;;;;;;;;;;;;;5050408;28;19932;-69
2021/10/24 03:15:43;;;;;;;;;;;;;;;;;;5052129;28;20242;-68
2021/10/24 03:18:09;;;;;;;;;;;;;;;;;;5050344;28;19932;-68
2021/10/24 03:20:36;;;;;;;;;;;;;;;;;;5052253;28;19925;-69
2021/10/24 03:23:03;;;;;;;;;;;;;;;;;;5053657;28;19925;-68
2021/10/24 03:25:30;;;;;;;;;;;;;;;;;;5056978;28;19929;-68
2021/10/24 03:27:57;;;;;;;;;;;;;;;;;;5050126;28;19931;-69
2021/10/24 03:30:24;;;;;;;;;;;;;;;;;;5053891;28;20309;-69
2021/10/24 03:32:51;;;;;;;;;;;;;;;;;;5053159;28;20352;-68
2021/10/24 03:35:18;;;;;;;;;;;;;;;;;;5053775;28;19928;-68
2021/10/24 03:37:45;;;;;;;;;;;;;;;;;;5053292;28;19943;-69
2021/10/24 03:40:12;;;;;;;;;;;;;;;;;;5052756;28;19924;-68
2021/10/24 03:45:16;;;;;;;;;;;;;;;;;;5059270;28;20363;-60
2021/10/24 03:47:43;;;;;;;;;;;;;;;;;;5054808;28;20304;-60
2021/10/24 03:50:10;;;;;;;;;;;;;;;;;;5058168;28;19947;-60
2021/10/24 03:52:37;;;;;;;;;;;;;;;;;;5053946;28;19984;-63
2021/10/24 03:55:09;;;;;;;;;;;;;;;;;;5055480;28;19987;-61
2021/10/24 03:57:36;;;;;;;;;;;;;;;;;;5059441;28;20393;-60
2021/10/24 04:00:03;;;;;;;;;;;;;;;;;;5057991;28;19933;-60
2021/10/24 04:02:30;;;;;;;;;;;;;;;;;;5057643;28;20133;-60
2021/10/24 04:04:57;;;;;;;;;;;;;;;;;;5057820;28;19925;-61
2021/10/24 04:07:24;;;;;;;;;;;;;;;;;;5053866;28;19924;-60
2021/10/24 04:09:51;;;;;;;;;;;;;;;;;;5057732;28;20392;-60
2021/10/24 04:12:18;;;;;;;;;;;;;;;;;;5059447;28;20392;-59
2021/10/24 04:14:45;;;;;;;;;;;;;;;;;;5055736;28;19944;-60
2021/10/24 04:17:12;;;;;;;;;;;;;;;;;;5058506;28;19929;-60
2021/10/24 04:19:39;;;;;;;;;;;;;;;;;;5057455;28;19931;-60
2021/10/24 04:22:06;;;;;;;;;;;;;;;;;;5057066;28;20020;-61
2021/10/24 04:24:33;;;;;;;;;;;;;;;;;;5054279;28;19925;-61
2021/10/24 04:27:00;;;;;;;;;;;;;;;;;;5053750;28;19926;-61
2021/10/24 04:29:27;;;;;;;;;;;;;;;;;;5056495;28;19932;-61
2021/10/24 04:31:54;;;;;;;;;;;;;;;;;;5054861;28;19929;-61
2021/10/24 04:34:21;;;;;;;;;;;;;;;;;;5056684;28;19935;-61
2021/10/24 04:36:48;;;;;;;;;;;;;;;;;;5049724;28;19931;-61
2021/10/24 04:39:15;;;;;;;;;;;;;;;;;;5049830;28;19925;-61
2021/10/24 04:41:42;;;;;;;;;;;;;;;;;;5054482;28;19929;-61
2021/10/24 04:44:09;;;;;;;;;;;;;;;;;;5056108;28;19925;-61
2021/10/24 04:46:37;;;;;;;;;;;;;;;;;;5053114;28;19935;-60
2021/10/24 04:49:04;;;;;;;;;;;;;;;;;;5058107;28;19925;-61
2021/10/24 04:51:31;;;;;;;;;;;;;;;;;;5055336;28;20300;-60
2021/10/24 04:53:58;;;;;;;;;;;;;;;;;;5054420;28;19931;-60
2021/10/24 04:56:25;;;;;;;;;;;;;;;;;;5056740;28;19932;-60
2021/10/24 04:58:52;;;;;;;;;;;;;;;;;;5057028;28;19925;-60
2021/10/24 05:01:19;;;;;;;;;;;;;;;;;;5054536;28;19931;-60
2021/10/24 05:03:48;;;;;;;;;;;;;;;;;;5051715;28;19925;-60
2021/10/24 05:06:15;;;;;;;;;;;;;;;;;;5050348;28;20308;-60
2021/10/24 05:08:42;;;;;;;;;;;;;;;;;;5053194;28;19932;-60
2021/10/24 05:11:09;;;;;;;;;;;;;;;;;;5051959;28;19960;-60
2021/10/24 05:13:36;;;;;;;;;;;;;;;;;;5054096;28;19929;-60
2021/10/24 05:16:03;;;;;;;;;;;;;;;;;;5057038;28;19926;-59
2021/10/24 05:18:30;;;;;;;;;;;;;;;;;;5053666;28;19932;-59
2021/10/24 05:20:57;;;;;;;;;;;;;;;;;;5056692;28;19951;-60
2021/10/24 05:23:24;;;;;;;;;;;;;;;;;;5059884;28;19931;-58
2021/10/24 05:25:51;;;;;;;;;;;;;;;;;;5057197;28;19925;-58
2021/10/24 05:28:20;;;;;;;;;;;;;;;;;;5058131;28;20016;-59
2021/10/24 05:30:47;;;;;;;;;;;;;;;;;;5054542;28;19925;-60
2021/10/24 05:33:14;;;;;;;;;;;;;;;;;;5051642;28;19935;-58
2021/10/24 05:35:41;;;;;;;;;;;;;;;;;;5050831;28;20007;-58
2021/10/24 05:38:10;;;;;;;;;;;;;;;;;;5059172;28;20291;-58
2021/10/24 05:40:37;;;;;;;;;;;;;;;;;;5053931;28;19931;-60
2021/10/24 05:43:04;;;;;;;;;;;;;;;;;;5056794;28;19931;-60
2021/10/24 05:45:31;;;;;;;;;;;;;;;;;;5056525;28;20384;-58
2021/10/24 05:47:58;;;;;;;;;;;;;;;;;;5057942;28;19931;-58
2021/10/24 05:50:25;;;;;;;;;;;;;;;;;;5062697;28;19936;-60
2021/10/24 05:52:52;;;;;;;;;;;;;;;;;;5061343;28;19932;-60
2021/10/24 05:55:19;;;;;;;;;;;;;;;;;;5060295;28;19931;-60
2021/10/24 05:57:46;;;;;;;;;;;;;;;;;;5055914;28;19931;-60
2021/10/24 06:00:13;;;;;;;;;;;;;;;;;;5055426;28;19925;-60
2021/10/24 06:02:40;;;;;;;;;;;;;;;;;;5058860;28;19980;-57
2021/10/24 06:05:07;;;;;;;;;;;;;;;;;;5061954;28;19935;-60
2021/10/24 06:07:35;;;;;;;;;;;;;;;;;;5061070;28;19936;-58
2021/10/24 06:10:11;;;;;;;;;;;;;;;;;;5055042;28;20455;-59
2021/10/24 06:12:44;;;;;;;;;;;;;;;;;;5053936;28;19925;-60
2021/10/24 06:15:11;;;;;;;;;;;;;;;;;;5059492;28;19932;-60
2021/10/24 06:17:38;;;;;;;;;;;;;;;;;;5059937;28;20297;-59
2021/10/24 06:20:05;;;;;;;;;;;;;;;;;;5055301;28;19924;-60
2021/10/24 06:22:32;;;;;;;;;;;;;;;;;;5062007;28;19931;-59
2021/10/24 06:24:59;;;;;;;;;;;;;;;;;;5058505;28;19925;-59
2021/10/24 06:27:26;;;;;;;;;;;;;;;;;;5058872;28;20304;-59
2021/10/24 06:29:53;;;;;;;;;;;;;;;;;;5058346;28;20407;-59
2021/10/24 06:32:19;;;;;;;;;;;;;;;;;;5061552;28;19925;-59
2021/10/24 06:34:46;;;;;;;;;;;;;;;;;;5058594;28;19925;-58
2021/10/24 06:37:17;;;;;;;;;;;;;;;;;;5059392;28;19931;-60
2021/10/24 06:39:45;;;;;;;;;;;;;;;;;;5058985;28;19935;-59
2021/10/24 06:42:12;;;;;;;;;;;;;;;;;;5052156;28;20464;-59
2021/10/24 06:44:39;;;;;;;;;;;;;;;;;;5056563;28;19932;-60
2021/10/24 06:47:06;;;;;;;;;;;;;;;;;;5053279;28;19925;-58
2021/10/24 06:49:33;;;;;;;;;;;;;;;;;;5062369;28;19956;-60
2021/10/24 06:52:05;;;;;;;;;;;;;;;;;;5058057;28;19925;-60
2021/10/24 06:54:32;;;;;;;;;;;;;;;;;;5056125;28;19955;-60
2021/10/24 06:56:59;;;;;;;;;;;;;;;;;;5056044;28;20399;-62
2021/10/24 06:59:26;;;;;;;;;;;;;;;;;;5057752;28;19925;-60
2021/10/24 07:01:53;;;;;;;;;;;;;;;;;;5057875;28;19924;-61
2021/10/24 07:04:20;;;;;;;;;;;;;;;;;;5059186;28;19925;-61
2021/10/24 07:06:47;;;;;;;;;;;;;;;;;;5060617;28;19932;-61
2021/10/24 07:09:14;;;;;;;;;;;;;;;;;;5064608;28;19988;-60
2021/10/24 07:11:41;;;;;;;;;;;;;;;;;;5060778;28;19964;-61
2021/10/24 07:14:08;;;;;;;;;;;;;;;;;;5057118;28;20016;-59
2021/10/24 07:16:35;;;;;;;;;;;;;;;;;;5058110;28;19928;-61
2021/10/24 07:19:02;;;;;;;;;;;;;;;;;;5059337;28;19932;-59
2021/10/24 07:21:29;;;;;;;;;;;;;;;;;;5055953;28;19931;-59
2021/10/24 07:23:56;;;;;;;;;;;;;;;;;;5045777;28;19929;-59
2021/10/24 07:26:23;;;;;;;;;;;;;;;;;;5052267;28;19949;-59
2021/10/24 07:28:49;;;;;;;;;;;;;;;;;;5053754;28;19931;-59
2021/10/24 07:31:16;;;;;;;;;;;;;;;;;;5046702;28;19925;-59
2021/10/24 07:33:43;;;;;;;;;;;;;;;;;;5051201;28;19933;-58
2021/10/24 07:36:10;;;;;;;;;;;;;;;;;;5054582;28;19928;-59
2021/10/24 07:38:37;;;;;;;;;;;;;;;;;;5051473;28;19932;-59
2021/10/24 07:41:04;;;;;;;;;;;;;;;;;;5054280;28;19932;-60
2021/10/24 07:43:32;;;;;;;;;;;;;;;;;;5053733;28;19924;-58
2021/10/24 07:45:59;;;;;;;;;;;;;;;;;;5047645;28;20002;-59
2021/10/24 07:48:26;;;;;;;;;;;;;;;;;;5049896;28;19980;-59
2021/10/24 07:50:53;;;;;;;;;;;;;;;;;;5055021;28;19933;-59
2021/10/24 07:53:24;;;;;;;;;;;;;;;;;;5054963;28;20377;-58
2021/10/24 07:55:51;;;;;;;;;;;;;;;;;;5054456;28;20027;-59
2021/10/24 07:58:18;;;;;;;;;;;;;;;;;;5055393;28;19931;-58
2021/10/24 08:00:45;;;;;;;;;;;;;;;;;;5048823;28;19925;-58
2021/10/24 08:03:12;;;;;;;;;;;;;;;;;;5052034;28;19996;-58
2021/10/24 08:05:39;;;;;;;;;;;;;;;;;;5055927;28;19931;-59
2021/10/24 08:08:06;;;;;;;;;;;;;;;;;;5054658;28;19925;-58
2021/10/24 08:10:33;;;;;;;;;;;;;;;;;;5054655;28;19935;-60
2021/10/24 08:13:00;;;;;;;;;;;;;;;;;;5050072;28;19931;-58
2021/10/24 08:15:27;;;;;;;;;;;;;;;;;;5053955;28;19924;-64
2021/10/24 08:17:54;;;;;;;;;;;;;;;;;;5054530;28;19947;-59
2021/10/24 08:20:21;;;;;;;;;;;;;;;;;;5056027;28;19964;-59
2021/10/24 08:22:48;;;;;;;;;;;;;;;;;;5056636;28;19931;-59
2021/10/24 08:25:16;;;;;;;;;;;;;;;;;;5056839;28;19935;-59
2021/10/24 08:27:43;;;;;;;;;;;;;;;;;;5057788;28;19936;-59
2021/10/24 08:30:10;;;;;;;;;;;;;;;;;;5052049;28;19933;-60
2021/10/24 08:32:37;;;;;;;;;;;;;;;;;;5056249;28;20028;-59
2021/10/24 08:35:08;;;;;;;;;;;;;;;;;;5055873;28;19925;-59
2021/10/24 08:37:35;;;;;;;;;;;;;;;;;;5046965;28;20023;-60
2021/10/24 08:40:02;;;;;;;;;;;;;;;;;;5051664;28;19992;-59
2021/10/24 08:42:32;;;;;;;;;;;;;;;;;;5051304;28;19925;-59
2021/10/24 08:44:59;;;;;;;;;;;;;;;;;;5049156;28;19925;-59
2021/10/24 08:47:26;;;;;;;;;;;;;;;;;;5047840;28;19931;-60
2021/10/24 08:49:53;;;;;;;;;;;;;;;;;;5043565;28;19928;-60
2021/10/24 08:52:20;;;;;;;;;;;;;;;;;;5052176;28;19928;-64
2021/10/24 08:54:50;;;;;;;;;;;;;;;;;;5048443;28;20308;-60
2021/10/24 08:57:17;;;;;;;;;;;;;;;;;;5043086;28;21013;-59
2021/10/24 08:59:44;;;;;;;;;;;;;;;;;;5047741;28;20342;-60
2021/10/24 09:02:11;;;;;;;;;;;;;;;;;;5051160;28;19925;-60
2021/10/24 09:04:38;;;;;;;;;;;;;;;;;;5052591;28;19935;-59
2021/10/24 09:07:05;;;;;;;;;;;;;;;;;;5053004;28;19925;-57
2021/10/24 09:09:32;;;;;;;;;;;;;;;;;;5051735;28;20270;-60
2021/10/24 09:11:59;;;;;;;;;;;;;;;;;;5050512;28;19932;-59
2021/10/24 09:14:26;;;;;;;;;;;;;;;;;;5052722;28;20023;-59
2021/10/24 09:16:53;;;;;;;;;;;;;;;;;;5049242;28;19955;-60
2021/10/24 09:19:23;;;;;;;;;;;;;;;;;;5048764;28;19929;-59
2021/10/24 09:21:50;;;;;;;;;;;;;;;;;;5049619;28;19931;-59
2021/10/24 09:24:16;;;;;;;;;;;;;;;;;;5054319;28;20015;-59
2021/10/24 09:26:43;;;;;;;;;;;;;;;;;;5047447;28;19975;-59
2021/10/24 09:29:10;;;;;;;;;;;;;;;;;;5048994;28;20408;-59
2021/10/24 09:31:37;;;;;;;;;;;;;;;;;;5048848;28;19935;-59
2021/10/24 09:34:04;;;;;;;;;;;;;;;;;;5048308;28;20237;-60
2021/10/24 09:36:31;;;;;;;;;;;;;;;;;;5047472;28;19924;-59
2021/10/24 09:38:58;;;;;;;;;;;;;;;;;;5052001;28;19979;-60
2021/10/24 09:41:25;;;;;;;;;;;;;;;;;;5052922;28;20204;-60
2021/10/24 09:43:52;;;;;;;;;;;;;;;;;;5047465;28;19924;-60
2021/10/24 09:46:22;;;;;;;;;;;;;;;;;;5039634;28;20341;-61
2021/10/24 09:48:49;;;;;;;;;;;;;;;;;;5049188;28;19925;-58
2021/10/24 09:51:18;;;;;;;;;;;;;;;;;;5041651;28;19940;-58
2021/10/24 09:53:45;;;;;;;;;;;;;;;;;;5043821;28;19990;-59
2021/10/24 09:56:12;;;;;;;;;;;;;;;;;;5043715;28;19933;-59
2021/10/24 09:58:39;;;;;;;;;;;;;;;;;;5045571;28;19955;-59
2021/10/24 10:01:06;;;;;;;;;;;;;;;;;;5045999;28;19932;-57
2021/10/24 10:03:32;;;;;;;;;;;;;;;;;;5045318;28;19994;-60
2021/10/24 10:05:59;;;;;;;;;;;;;;;;;;5041413;28;20420;-57
2021/10/24 10:08:26;;;;;;;;;;;;;;;;;;5043313;28;19929;-60
2021/10/24 10:10:53;;;;;;;;;;;;;;;;;;5044352;28;20292;-58
2021/10/24 10:13:20;;;;;;;;;;;;;;;;;;5040833;28;19933;-60
2021/10/24 10:15:47;;;;;;;;;;;;;;;;;;5042861;28;19929;-59
2021/10/24 10:18:14;;;;;;;;;;;;;;;;;;5042841;28;21424;-59
2021/10/24 10:20:41;;;;;;;;;;;;;;;;;;5044258;28;19968;-60
2021/10/24 10:23:08;;;;;;;;;;;;;;;;;;5046897;28;19933;-60
2021/10/24 10:25:35;;;;;;;;;;;;;;;;;;5044739;28;19929;-60
2021/10/24 10:28:02;;;;;;;;;;;;;;;;;;5045634;28;19957;-59
2021/10/24 10:30:30;;;;;;;;;;;;;;;;;;5047410;28;20014;-59
2021/10/24 10:32:57;;;;;;;;;;;;;;;;;;5044053;28;19925;-61
2021/10/24 10:35:25;;;;;;;;;;;;;;;;;;5049941;28;19935;-61
2021/10/24 10:37:52;;;;;;;;;;;;;;;;;;5048301;28;19963;-60
2021/10/24 10:40:19;;;;;;;;;;;;;;;;;;5047545;28;20265;-62
2021/10/24 10:42:46;;;;;;;;;;;;;;;;;;5047444;28;19931;-59
2021/10/24 10:45:13;;;;;;;;;;;;;;;;;;5049347;28;20004;-62
2021/10/24 10:47:40;;;;;;;;;;;;;;;;;;5043742;28;19926;-60
2021/10/24 10:50:07;;;;;;;;;;;;;;;;;;5042857;28;19929;-59
2021/10/24 10:52:34;;;;;;;;;;;;;;;;;;5050235;28;19960;-62
2021/10/24 10:55:01;;;;;;;;;;;;;;;;;;5047834;28;20383;-62
2021/10/24 10:57:28;;;;;;;;;;;;;;;;;;5049926;28;19932;-62
2021/10/24 10:59:55;;;;;;;;;;;;;;;;;;5049059;28;19925;-62
2021/10/24 11:02:22;;;;;;;;;;;;;;;;;;5047897;28;19940;-61
2021/10/24 11:04:49;;;;;;;;;;;;;;;;;;5046451;28;19925;-60
2021/10/24 11:07:16;;;;;;;;;;;;;;;;;;5048184;28;20312;-60
2021/10/24 11:09:43;;;;;;;;;;;;;;;;;;5046918;28;19932;-59
2021/10/24 11:12:10;;;;;;;;;;;;;;;;;;5045992;28;19925;-61
2021/10/24 11:14:37;;;;;;;;;;;;;;;;;;5045407;28;19929;-61
2021/10/24 11:17:04;;;;;;;;;;;;;;;;;;5050802;28;20292;-61
2021/10/24 11:19:32;;;;;;;;;;;;;;;;;;5049140;28;19931;-60
2021/10/24 11:21:59;;;;;;;;;;;;;;;;;;5045481;28;20432;-59
2021/10/24 11:24:26;;;;;;;;;;;;;;;;;;5045656;28;19925;-58
2021/10/24 11:26:53;;;;;;;;;;;;;;;;;;5048760;28;20012;-60
2021/10/24 11:29:20;;;;;;;;;;;;;;;;;;5045921;28;20444;-60
2021/10/24 11:31:47;;;;;;;;;;;;;;;;;;5049462;28;20384;-62
2021/10/24 11:34:14;;;;;;;;;;;;;;;;;;5044077;28;20013;-61
2021/10/24 11:36:41;;;;;;;;;;;;;;;;;;5046200;28;19998;-62
2021/10/24 11:39:08;;;;;;;;;;;;;;;;;;5043578;28;19931;-62
2021/10/24 11:41:35;;;;;;;;;;;;;;;;;;5044471;28;19925;-61
2021/10/24 11:44:02;;;;;;;;;;;;;;;;;;5045191;28;20404;-61
2021/10/24 11:46:29;;;;;;;;;;;;;;;;;;5039773;28;20027;-61
2021/10/24 11:49:02;;;;;;;;;;;;;;;;;;5040987;28;20307;-62
2021/10/24 11:51:30;;;;;;;;;;;;;;;;;;5039678;28;19924;-61
2021/10/24 11:53:57;;;;;;;;;;;;;;;;;;5041856;28;20296;-61
2021/10/24 11:56:36;;;;;;;;;;;;;;;;;;5046373;28;19931;-61
2021/10/24 11:59:12;;;;;;;;;;;;;;;;;;5046477;28;20062;-59
2021/10/24 12:01:39;;;;;;;;;;;;;;;;;;5047867;28;20108;-60
2021/10/24 12:04:06;;;;;;;;;;;;;;;;;;5047782;28;20035;-60
2021/10/24 12:06:33;;;;;;;;;;;;;;;;;;5046346;28;19931;-60
2021/10/24 12:09:00;;;;;;;;;;;;;;;;;;5049765;28;20377;-60
2021/10/24 12:11:27;;;;;;;;;;;;;;;;;;5044966;28;19925;-60
2021/10/24 12:14:02;;;;;;;;;;;36.50;34.70;;;;;;5041730;28;20286;-68
2021/10/24 12:16:29;;;;;;;;;;;;;;;;;;5043730;28;19925;-60
2021/10/24 12:19:10;;;;;;;;;;;37.50;34.70;;;;;;5041345;28;19962;-60
2021/10/24 12:21:37;;;;;;;;;;;37.50;33.00;;;;;;5045191;28;20399;-59
2021/10/24 12:24:16;;;;;;;;;;;35.70;33.80;;;;;;5046204;28;19928;-60
2021/10/24 12:26:43;;;;;;;;;;;34.90;34.90;;;;;;5047183;28;19929;-60
2021/10/24 12:29:18;;;;;;;;;;;34.60;36.00;;;;;;5045315;28;19933;-60
2021/10/24 12:32:04;;;;;;;;;;;33.30;37.00;;;;;;5045462;28;19929;-60
2021/10/24 12:34:30;;;;;;;;;;;;;;;;;;5046010;28;20019;-60
2021/10/24 12:36:57;;;;;;;;;;;;;;;;;;5045962;28;19925;-60
2021/10/24 12:39:24;;;;;;;;;;;;;;;;;;5045755;28;19935;-60
2021/10/24 12:41:51;;;;;;;;;;;;;;;;;;5041586;28;20432;-60
2021/10/24 12:44:19;;;;;;;;;;;;;;;;;;5040443;28;20011;-59
2021/10/24 12:46:46;;;;;;;;;;;;;;;;;;5043038;28;19925;-56
2021/10/24 12:49:12;;;;;;;;;;;;;;;;;;5043270;28;19931;-61
2021/10/24 12:51:40;;;;;;;;;;;;;;;;;;5045554;28;19928;-60
2021/10/24 12:54:07;;;;;;;;;;;;;;;;;;5041333;28;19995;-60
2021/10/24 12:56:34;;;;;;;;;;;;;;;;;;5040385;28;19929;-60
2021/10/24 12:59:01;;;;;;;;;;;;;;;;;;5049471;28;20112;-60
2021/10/24 13:01:28;;;;;;;;;;;;;;;;;;5050744;28;19925;-59
2021/10/24 13:03:55;;;;;;;;;;;;;;;;;;5050997;28;19925;-59
2021/10/24 13:06:22;;;;;;;;;;;;;;;;;;5049427;28;20472;-61
2021/10/24 13:08:49;;;;;;;;;;;;;;;;;;5052528;28;19925;-61
2021/10/24 13:11:16;;;;;;;;;;;;;;;;;;5053110;28;19925;-59
2021/10/24 13:13:43;;;;;;;;;;;;;;;;;;5048799;28;20384;-57
2021/10/24 13:16:10;;;;;;;;;;;;;;;;;;5042175;28;19933;-59
2021/10/24 13:18:37;;;;;;;;;;;;;;;;;;5044730;28;19928;-60
2021/10/24 13:21:06;;;;;;;;;;;;;;;;;;5048807;28;19933;-59
2021/10/24 13:23:32;;;;;;;;;;;;;;;;;;5048055;28;19925;-60
2021/10/24 13:25:59;;;;;;;;;;;;;;;;;;5048528;28;19921;-60
2021/10/24 13:28:26;;;;;;;;;;;;;;;;;;5050985;28;19925;-61
2021/10/24 13:30:53;;;;;;;;;;;;;;;;;;5052082;28;20020;-60
2021/10/24 13:33:20;;;;;;;;;;;;;;;;;;5050588;28;19972;-61
2021/10/24 13:35:47;;;;;;;;;;;;;;;;;;5050872;28;19925;-60
2021/10/24 13:38:14;;;;;;;;;;;;;;;;;;5047937;28;19933;-60
2021/10/24 13:40:42;;;;;;;;;;;31.80;40.10;;;;;;5046988;28;19925;-59
2021/10/24 13:43:09;;;;;;;;;;;31.90;40.50;;;;;;5048715;28;19959;-60
2021/10/24 13:45:36;;;;;;;;;;;;;;;;;;5046832;28;19931;-60
2021/10/24 13:48:05;;;;;;;;;;;;;;;;;;5043442;28;19980;-60
2021/10/24 13:50:32;;;;;;;;;;;;;;;;;;5040600;28;19951;-60
2021/10/24 13:52:59;;;;;;;;;;;;;;;;;;5044588;28;20028;-60
2021/10/24 13:55:26;;;;;;;;;;;;;;;;;;5039742;28;19972;-60
2021/10/24 13:57:53;;;;;;;;;;;;;;;;;;5052067;28;20371;-61
2021/10/24 14:00:20;;;;;;;;;;;;;;;;;;5051902;28;20300;-61
2021/10/24 14:02:49;;;;;;;;;;;;;;;;;;5052358;28;20035;-61
2021/10/24 14:05:16;;;;;;;;;;;;;;;;;;5052907;28;19933;-60
2021/10/24 14:07:43;;;;;;;;;;;;;;;;;;5052547;28;19925;-60
2021/10/24 14:10:10;;;;;;;;;;;;;;;;;;5048718;28;20186;-60
2021/10/24 14:12:36;;;;;;;;;;;;;;;;;;5051114;28;20027;-60
2021/10/24 14:15:03;;;;;;;;;;;;;;;;;;5050102;28;19929;-61
2021/10/24 14:17:30;;;;;;;;;;;;;;;;;;5052891;28;19924;-61
2021/10/24 14:19:58;;;;;;;;;;;;;;;;;;5053863;28;19924;-60
2021/10/24 14:22:25;;;;;;;;;;;;;;;;;;5054603;28;19995;-61
2021/10/24 14:24:52;;;;;;;;;;;;;;;;;;5050981;28;20010;-60
2021/10/24 14:27:19;;;;;;;;;;;;;;;;;;5052902;28;19931;-61
2021/10/24 14:29:46;;;;;;;;;;;;;;;;;;5049681;28;19974;-60
2021/10/24 14:32:13;;;;;;;;;;;;;;;;;;5054324;28;20401;-59
2021/10/24 14:34:40;;;;;;;;;;;;;;;;;;5053965;28;19984;-59
2021/10/24 14:37:07;;;;;;;;;;;;;;;;;;5043886;28;19996;-59
2021/10/24 14:39:34;;;;;;;;;;;;;;;;;;5051099;28;19933;-59
2021/10/24 14:42:01;;;;;;;;;;;;;;;;;;5047213;28;20012;-60
2021/10/24 14:44:28;;;;;;;;;;;;;;;;;;5048936;28;19986;-61
2021/10/24 14:46:55;;;;;;;;;;;;;;;;;;5054585;28;20013;-61
2021/10/24 14:49:22;;;;;;;;;;;;;;;;;;5054934;28;19931;-61
2021/10/24 14:51:49;;;;;;;;;;;;;;;;;;5051475;28;19925;-61
2021/10/24 14:54:16;;;;;;;;;;;;;;;;;;5053251;28;19943;-60
2021/10/24 14:56:43;;;;;;;;;;;;;;;;;;5047972;28;20274;-60
2021/10/24 14:59:10;;;;;;;;;;;;;;;;;;5058658;28;19992;-59
2021/10/24 15:01:39;;;;;;;;;;;;;;;;;;5057842;28;19931;-60
2021/10/24 15:04:06;;;;;;;;;;;;;;;;;;5058600;28;20001;-60
2021/10/24 15:06:33;;;;;;;;;;;;;;;;;;5059755;28;19924;-60
2021/10/24 15:09:00;;;;;;;;;;;;;;;;;;5053889;28;19929;-60
2021/10/24 15:11:27;;;;;;;;;;;;;;;;;;5052742;28;19928;-60
2021/10/24 15:13:55;;;;;;;;;;;;;;;;;;5060542;28;20046;-60
2021/10/24 15:16:24;;;;;;;;;;;;;;;;;;5056161;28;20381;-60
2021/10/24 15:19:29;;;;;;;;;;;;;;;;;;5057244;28;19926;-60
2021/10/24 15:21:55;;;;;;;;;;;;;;;;;;5051935;28;19925;-59
2021/10/24 15:24:22;;;;;;;;;;;;;;;;;;5053462;28;20341;-60
2021/10/24 15:26:49;;;;;;;;;;;;;;;;;;5056801;28;19988;-60
2021/10/24 15:29:16;;;;;;;;;;;;;;;;;;5054084;28;20027;-57
2021/10/24 15:31:43;;;;;;;;;;;;;;;;;;5056265;28;20000;-60
2021/10/24 15:34:11;;;;;;;;;;;;;;;;;;5057031;28;19950;-60
2021/10/24 15:36:38;;;;;;;;;;;;;;;;;;5052676;28;19994;-60
2021/10/24 15:39:05;;;;;;;;;;;;;;;;;;5054353;28;20417;-59
2021/10/24 15:41:33;;;;;;;;;;;;;;;;;;5061060;28;20019;-59
2021/10/24 15:44:00;;;;;;;;;;;;;;;;;;5067881;22;19924;-68
2021/10/24 15:46:27;;;;;;;;;;;;;;;;;;5039751;28;19932;-68
2021/10/24 15:48:54;;;;;;;;;;;;;;;;;;5048279;28;20341;-68
2021/10/24 15:51:22;;;;;;;;;;;;;;;;;;5046702;28;19933;-69
2021/10/24 15:53:49;;;;;;;;;;;;;;;;;;5045749;28;19976;-68
2021/10/24 15:56:16;;;;;;;;;;;;;;;;;;5042941;28;19933;-68
2021/10/24 15:58:43;;;;;;;;;;;;;;;;;;5044870;28;20460;-67
2021/10/24 16:01:10;;;;;;;;;;;;;;;;;;5042526;28;19933;-68
2021/10/24 16:03:37;;;;;;;;;;;;;;;;;;5045687;28;19933;-68
2021/10/24 16:06:06;;;;;;;;;;;;;;;;;;5050752;28;19947;-68
2021/10/24 16:08:33;;;;;;;;;;;;;;;;;;5046352;28;20344;-68
2021/10/24 16:11:00;;;;;;;;;;;;;;;;;;5049076;28;19925;-69
2021/10/24 16:13:27;;;;;;;;;;;;;;;;;;5049077;28;19933;-69
2021/10/24 16:15:54;;;;;;;;;;;;;;;;;;5047451;28;19932;-69
2021/10/24 16:18:21;;;;;;;;;;;;;;;;;;5049427;28;20011;-69
2021/10/24 16:20:48;;;;;;;;;;;;;;;;;;5048456;28;19931;-68
2021/10/24 16:23:15;;;;;;;;;;;;;;;;;;5051146;28;19925;-68
2021/10/24 16:25:42;;;;;;;;;;;;;;;;;;5054515;28;19932;-68
2021/10/24 16:28:09;;;;;;;;;;;;;;;;;;5052806;28;20019;-68
2021/10/24 16:30:36;;;;;;;;;;;;;;;;;;5043981;28;19933;-68
2021/10/24 16:33:03;;;;;;;;;;;;;;;;;;5050523;28;19935;-67
2021/10/24 16:35:30;;;;;;;;;;;;;;;;;;5044518;28;19931;-67
2021/10/24 16:37:57;;;;;;;;;;;;;;;;;;5044711;28;19929;-67
2021/10/24 16:40:24;;;;;;;;;;;;;;;;;;5044366;28;20296;-67
2021/10/24 16:42:51;;;;;;;;;;;;;;;;;;5043985;28;19939;-67
2021/10/24 16:45:18;;;;;;;;;;;;;;;;;;5046808;28;20311;-68